sensor_id;sensor_type;location;lat;lon;timestamp;temperature;humidity
12761;DHT22;6444;49.742;6.114;2023-02-15T00:01:18;4.00;99.90
12761;DHT22;6444;49.742;6.114;2023-02-15T00:03:47;3.60;99.90
12761;DHT22;6444;49.742;6.114;2023-02-15T00:06:11;3.80;99.90
12761;DHT22;6444;49.742;6.114;2023-02-15T00:08:38;3.80;99.90
12761;DHT22;6444;49.742;6.114;2023-02-15T00:11:05;3.80;99.90
12761;DHT22;6444;49.742;6.114;2023-02-15T00:13:31;3.70;99.90
12761;DHT22;6444;49.742;6.114;2023-02-15T00:16:02;3.40;99.90
12761;DHT22;6444;49.742;6.114;2023-02-15T00:18:28;3.40;99.90
12761;DHT22;6444;49.742;6.114;2023-02-15T00:20:55;3.30;99.90
12761;DHT22;6444;49.742;6.114;2023-02-15T00:23:21;3.50;99.90
12761;DHT22;6444;49.742;6.114;2023-02-15T00:25:48;3.40;99.90
12761;DHT22;6444;49.742;6.114;2023-02-15T00:28:15;3.70;99.90
12761;DHT22;6444;49.742;6.114;2023-02-15T00:30:41;3.40;99.90
12761;DHT22;6444;49.742;6.114;2023-02-15T00:33:08;3.30;99.90
12761;DHT22;6444;49.742;6.114;2023-02-15T00:35:34;3.50;99.90
12761;DHT22;6444;49.742;6.114;2023-02-15T00:38:01;3.60;99.90
12761;DHT22;6444;49.742;6.114;2023-02-15T00:40:28;3.40;99.90
12761;DHT22;6444;49.742;6.114;2023-02-15T00:42:54;2.70;99.90
12761;DHT22;6444;49.742;6.114;2023-02-15T00:45:21;2.50;99.90
12761;DHT22;6444;49.742;6.114;2023-02-15T00:47:48;3.00;99.90
12761;DHT22;6444;49.742;6.114;2023-02-15T00:50:15;2.90;99.90
12761;DHT22;6444;49.742;6.114;2023-02-15T00:52:42;2.90;99.90
12761;DHT22;6444;49.742;6.114;2023-02-15T00:55:08;2.70;99.90
12761;DHT22;6444;49.742;6.114;2023-02-15T00:57:35;3.00;99.90
12761;DHT22;6444;49.742;6.114;2023-02-15T01:00:02;2.50;99.90
12761;DHT22;6444;49.742;6.114;2023-02-15T01:02:28;2.90;99.90
12761;DHT22;6444;49.742;6.114;2023-02-15T01:04:55;3.20;99.90
12761;DHT22;6444;49.742;6.114;2023-02-15T01:07:21;3.40;99.90
12761;DHT22;6444;49.742;6.114;2023-02-15T01:09:48;3.40;99.90
12761;DHT22;6444;49.742;6.114;2023-02-15T01:12:15;3.40;99.90
12761;DHT22;6444;49.742;6.114;2023-02-15T01:14:41;3.40;99.90
12761;DHT22;6444;49.742;6.114;2023-02-15T01:17:08;3.60;99.90
12761;DHT22;6444;49.742;6.114;2023-02-15T01:19:35;3.60;99.90
12761;DHT22;6444;49.742;6.114;2023-02-15T01:22:01;3.20;99.90
12761;DHT22;6444;49.742;6.114;2023-02-15T01:24:28;2.80;99.90
12761;DHT22;6444;49.742;6.114;2023-02-15T01:26:54;3.00;99.90
12761;DHT22;6444;49.742;6.114;2023-02-15T01:29:21;3.20;99.90
12761;DHT22;6444;49.742;6.114;2023-02-15T01:31:49;3.30;99.90
12761;DHT22;6444;49.742;6.114;2023-02-15T01:34:15;3.30;99.90
12761;DHT22;6444;49.742;6.114;2023-02-15T01:36:42;3.30;99.90
12761;DHT22;6444;49.742;6.114;2023-02-15T01:39:08;3.30;99.90
12761;DHT22;6444;49.742;6.114;2023-02-15T01:41:35;3.40;99.90
12761;DHT22;6444;49.742;6.114;2023-02-15T01:44:02;3.20;99.90
12761;DHT22;6444;49.742;6.114;2023-02-15T01:46:30;3.20;99.90
12761;DHT22;6444;49.742;6.114;2023-02-15T01:48:59;3.20;99.90
12761;DHT22;6444;49.742;6.114;2023-02-15T01:51:23;3.10;99.90
12761;DHT22;6444;49.742;6.114;2023-02-15T01:53:57;2.50;99.90
12761;DHT22;6444;49.742;6.114;2023-02-15T01:56:22;2.20;99.90
12761;DHT22;6444;49.742;6.114;2023-02-15T01:58:47;2.20;99.90
12761;DHT22;6444;49.742;6.114;2023-02-15T02:01:14;2.60;99.90
12761;DHT22;6444;49.742;6.114;2023-02-15T02:06:31;3.00;99.90
12761;DHT22;6444;49.742;6.114;2023-02-15T02:08:58;2.50;99.90
12761;DHT22;6444;49.742;6.114;2023-02-15T02:11:24;2.40;99.90
12761;DHT22;6444;49.742;6.114;2023-02-15T02:13:52;3.10;99.90
12761;DHT22;6444;49.742;6.114;2023-02-15T02:19:05;3.30;99.90
12761;DHT22;6444;49.742;6.114;2023-02-15T02:30:06;3.10;99.90
12761;DHT22;6444;49.742;6.114;2023-02-15T02:35:27;3.40;99.90
12761;DHT22;6444;49.742;6.114;2023-02-15T02:38:10;3.50;99.90
12761;DHT22;6444;49.742;6.114;2023-02-15T02:43:20;3.10;99.90
12761;DHT22;6444;49.742;6.114;2023-02-15T02:45:46;3.00;99.90
12761;DHT22;6444;49.742;6.114;2023-02-15T02:48:15;3.40;99.90
12761;DHT22;6444;49.742;6.114;2023-02-15T02:50:40;3.50;99.90
12761;DHT22;6444;49.742;6.114;2023-02-15T02:53:08;3.70;99.90
12761;DHT22;6444;49.742;6.114;2023-02-15T02:58:11;4.10;99.90
12761;DHT22;6444;49.742;6.114;2023-02-15T03:00:39;4.10;99.90
12761;DHT22;6444;49.742;6.114;2023-02-15T03:03:06;4.30;99.90
12761;DHT22;6444;49.742;6.114;2023-02-15T03:05:33;4.40;99.90
12761;DHT22;6444;49.742;6.114;2023-02-15T03:07:59;4.00;99.90
12761;DHT22;6444;49.742;6.114;2023-02-15T03:10:25;4.10;99.90
12761;DHT22;6444;49.742;6.114;2023-02-15T03:12:52;3.70;99.90
12761;DHT22;6444;49.742;6.114;2023-02-15T03:15:24;3.70;99.90
12761;DHT22;6444;49.742;6.114;2023-02-15T03:17:50;4.10;99.90
12761;DHT22;6444;49.742;6.114;2023-02-15T03:20:17;4.40;99.90
12761;DHT22;6444;49.742;6.114;2023-02-15T03:22:46;4.30;99.90
12761;DHT22;6444;49.742;6.114;2023-02-15T03:25:14;4.00;99.90
12761;DHT22;6444;49.742;6.114;2023-02-15T03:27:39;3.90;99.90
12761;DHT22;6444;49.742;6.114;2023-02-15T03:30:05;3.80;99.90
12761;DHT22;6444;49.742;6.114;2023-02-15T03:32:32;3.20;99.90
12761;DHT22;6444;49.742;6.114;2023-02-15T03:34:58;3.20;99.90
12761;DHT22;6444;49.742;6.114;2023-02-15T03:37:44;3.10;99.90
12761;DHT22;6444;49.742;6.114;2023-02-15T03:40:22;3.10;99.90
12761;DHT22;6444;49.742;6.114;2023-02-15T03:43:18;3.00;99.90
12761;DHT22;6444;49.742;6.114;2023-02-15T03:45:42;2.80;99.90
12761;DHT22;6444;49.742;6.114;2023-02-15T03:48:08;2.80;99.90
12761;DHT22;6444;49.742;6.114;2023-02-15T03:50:35;2.60;99.90
12761;DHT22;6444;49.742;6.114;2023-02-15T03:53:20;2.60;99.90
12761;DHT22;6444;49.742;6.114;2023-02-15T03:55:52;2.70;99.90
12761;DHT22;6444;49.742;6.114;2023-02-15T03:58:16;3.20;99.90
12761;DHT22;6444;49.742;6.114;2023-02-15T04:01:05;3.40;99.90
12761;DHT22;6444;49.742;6.114;2023-02-15T04:03:55;3.00;99.90
12761;DHT22;6444;49.742;6.114;2023-02-15T04:06:20;3.30;99.90
12761;DHT22;6444;49.742;6.114;2023-02-15T04:08:47;3.20;99.90
12761;DHT22;6444;49.742;6.114;2023-02-15T04:11:32;3.70;99.90
12761;DHT22;6444;49.742;6.114;2023-02-15T04:13:59;3.90;99.90
12761;DHT22;6444;49.742;6.114;2023-02-15T04:16:25;3.40;99.90
12761;DHT22;6444;49.742;6.114;2023-02-15T04:18:52;3.20;99.90
12761;DHT22;6444;49.742;6.114;2023-02-15T04:21:37;2.30;99.90
12761;DHT22;6444;49.742;6.114;2023-02-15T04:24:21;2.60;99.90
12761;DHT22;6444;49.742;6.114;2023-02-15T04:27:06;2.60;99.90
12761;DHT22;6444;49.742;6.114;2023-02-15T04:29:32;2.50;99.90
12761;DHT22;6444;49.742;6.114;2023-02-15T04:32:00;2.60;99.90
12761;DHT22;6444;49.742;6.114;2023-02-15T04:34:26;2.90;99.90
12761;DHT22;6444;49.742;6.114;2023-02-15T04:36:52;3.10;99.90
12761;DHT22;6444;49.742;6.114;2023-02-15T04:39:19;3.30;99.90
12761;DHT22;6444;49.742;6.114;2023-02-15T04:41:46;3.70;99.90
12761;DHT22;6444;49.742;6.114;2023-02-15T04:44:12;3.90;99.90
12761;DHT22;6444;49.742;6.114;2023-02-15T04:46:39;3.60;99.90
12761;DHT22;6444;49.742;6.114;2023-02-15T04:49:06;3.50;99.90
12761;DHT22;6444;49.742;6.114;2023-02-15T04:51:32;3.10;99.90
12761;DHT22;6444;49.742;6.114;2023-02-15T04:53:59;2.90;99.90
12761;DHT22;6444;49.742;6.114;2023-02-15T04:56:25;2.50;99.90
12761;DHT22;6444;49.742;6.114;2023-02-15T04:58:52;2.90;99.90
12761;DHT22;6444;49.742;6.114;2023-02-15T05:01:19;2.60;99.90
12761;DHT22;6444;49.742;6.114;2023-02-15T05:03:45;2.70;99.90
12761;DHT22;6444;49.742;6.114;2023-02-15T05:06:13;2.50;99.90
12761;DHT22;6444;49.742;6.114;2023-02-15T05:08:39;2.40;99.90
12761;DHT22;6444;49.742;6.114;2023-02-15T05:11:06;2.90;99.90
12761;DHT22;6444;49.742;6.114;2023-02-15T05:13:33;3.10;99.90
12761;DHT22;6444;49.742;6.114;2023-02-15T05:15:59;3.10;99.90
12761;DHT22;6444;49.742;6.114;2023-02-15T05:18:26;3.10;99.90
12761;DHT22;6444;49.742;6.114;2023-02-15T05:20:52;3.40;99.90
12761;DHT22;6444;49.742;6.114;2023-02-15T05:23:19;3.00;99.90
12761;DHT22;6444;49.742;6.114;2023-02-15T05:25:49;3.00;99.90
12761;DHT22;6444;49.742;6.114;2023-02-15T05:28:33;2.50;99.90
12761;DHT22;6444;49.742;6.114;2023-02-15T05:31:05;2.30;99.90
12761;DHT22;6444;49.742;6.114;2023-02-15T05:33:30;2.20;99.90
12761;DHT22;6444;49.742;6.114;2023-02-15T05:35:57;3.40;99.90
12761;DHT22;6444;49.742;6.114;2023-02-15T05:38:24;3.30;99.90
12761;DHT22;6444;49.742;6.114;2023-02-15T05:40:51;2.80;99.90
12761;DHT22;6444;49.742;6.114;2023-02-15T05:43:17;2.40;99.90
12761;DHT22;6444;49.742;6.114;2023-02-15T05:45:50;2.80;99.90
12761;DHT22;6444;49.742;6.114;2023-02-15T05:48:16;3.10;99.90
12761;DHT22;6444;49.742;6.114;2023-02-15T05:50:43;3.30;99.90
12761;DHT22;6444;49.742;6.114;2023-02-15T05:53:09;3.10;99.90
12761;DHT22;6444;49.742;6.114;2023-02-15T05:55:39;3.30;99.90
12761;DHT22;6444;49.742;6.114;2023-02-15T05:58:05;3.30;99.90
12761;DHT22;6444;49.742;6.114;2023-02-15T06:00:32;2.70;99.90
12761;DHT22;6444;49.742;6.114;2023-02-15T06:02:58;2.70;99.90
12761;DHT22;6444;49.742;6.114;2023-02-15T06:05:25;2.50;99.90
12761;DHT22;6444;49.742;6.114;2023-02-15T06:07:52;2.60;99.90
12761;DHT22;6444;49.742;6.114;2023-02-15T06:10:18;2.70;99.90
12761;DHT22;6444;49.742;6.114;2023-02-15T06:12:45;2.10;99.90
12761;DHT22;6444;49.742;6.114;2023-02-15T06:15:12;2.10;99.90
12761;DHT22;6444;49.742;6.114;2023-02-15T06:17:40;1.90;99.90
12761;DHT22;6444;49.742;6.114;2023-02-15T06:20:05;1.70;99.90
12761;DHT22;6444;49.742;6.114;2023-02-15T06:22:32;1.60;99.90
12761;DHT22;6444;49.742;6.114;2023-02-15T06:24:58;1.60;99.90
12761;DHT22;6444;49.742;6.114;2023-02-15T06:27:25;1.80;99.90
12761;DHT22;6444;49.742;6.114;2023-02-15T06:29:52;1.60;99.90
12761;DHT22;6444;49.742;6.114;2023-02-15T06:32:18;2.30;99.90
12761;DHT22;6444;49.742;6.114;2023-02-15T06:34:45;2.20;99.90
12761;DHT22;6444;49.742;6.114;2023-02-15T06:37:11;2.70;99.90
12761;DHT22;6444;49.742;6.114;2023-02-15T06:39:38;2.80;99.90
12761;DHT22;6444;49.742;6.114;2023-02-15T06:42:05;2.90;99.90
12761;DHT22;6444;49.742;6.114;2023-02-15T06:44:32;2.40;99.90
12761;DHT22;6444;49.742;6.114;2023-02-15T06:46:59;2.30;99.90
12761;DHT22;6444;49.742;6.114;2023-02-15T06:49:25;2.10;99.90
12761;DHT22;6444;49.742;6.114;2023-02-15T06:51:52;1.20;99.90
12761;DHT22;6444;49.742;6.114;2023-02-15T06:54:19;1.10;99.90
12761;DHT22;6444;49.742;6.114;2023-02-15T06:56:46;1.10;99.90
12761;DHT22;6444;49.742;6.114;2023-02-15T06:59:13;1.00;99.90
12761;DHT22;6444;49.742;6.114;2023-02-15T07:01:39;1.30;99.90
12761;DHT22;6444;49.742;6.114;2023-02-15T07:04:06;0.90;99.90
12761;DHT22;6444;49.742;6.114;2023-02-15T07:06:33;0.70;99.90
12761;DHT22;6444;49.742;6.114;2023-02-15T07:09:00;1.10;99.90
12761;DHT22;6444;49.742;6.114;2023-02-15T07:11:27;1.00;99.90
12761;DHT22;6444;49.742;6.114;2023-02-15T07:14:11;1.60;99.90
12761;DHT22;6444;49.742;6.114;2023-02-15T07:16:38;2.20;99.90
12761;DHT22;6444;49.742;6.114;2023-02-15T07:19:04;2.70;99.90
12761;DHT22;6444;49.742;6.114;2023-02-15T07:21:31;2.90;99.90
12761;DHT22;6444;49.742;6.114;2023-02-15T07:23:58;2.80;99.90
12761;DHT22;6444;49.742;6.114;2023-02-15T07:26:25;2.70;99.90
12761;DHT22;6444;49.742;6.114;2023-02-15T07:28:52;2.40;99.90
12761;DHT22;6444;49.742;6.114;2023-02-15T07:31:18;2.20;99.90
12761;DHT22;6444;49.742;6.114;2023-02-15T07:33:46;0.90;99.90
12761;DHT22;6444;49.742;6.114;2023-02-15T07:36:12;0.80;99.90
12761;DHT22;6444;49.742;6.114;2023-02-15T07:38:40;0.70;99.90
12761;DHT22;6444;49.742;6.114;2023-02-15T07:41:10;0.20;99.90
12761;DHT22;6444;49.742;6.114;2023-02-15T07:43:36;0.60;99.90
12761;DHT22;6444;49.742;6.114;2023-02-15T07:46:04;0.80;99.90
12761;DHT22;6444;49.742;6.114;2023-02-15T07:48:29;0.70;99.90
12761;DHT22;6444;49.742;6.114;2023-02-15T07:51:02;0.80;99.90
12761;DHT22;6444;49.742;6.114;2023-02-15T07:53:29;0.60;99.90
12761;DHT22;6444;49.742;6.114;2023-02-15T07:55:59;0.70;99.90
12761;DHT22;6444;49.742;6.114;2023-02-15T07:58:22;1.40;99.90
12761;DHT22;6444;49.742;6.114;2023-02-15T08:00:48;1.60;99.90
12761;DHT22;6444;49.742;6.114;2023-02-15T08:03:24;2.00;99.90
12761;DHT22;6444;49.742;6.114;2023-02-15T08:05:50;2.40;99.90
12761;DHT22;6444;49.742;6.114;2023-02-15T08:08:17;2.30;99.90
12761;DHT22;6444;49.742;6.114;2023-02-15T08:11:03;2.50;99.90
12761;DHT22;6444;49.742;6.114;2023-02-15T08:13:47;2.90;99.90
12761;DHT22;6444;49.742;6.114;2023-02-15T08:16:41;2.90;99.90
12761;DHT22;6444;49.742;6.114;2023-02-15T08:18:53;3.40;99.90
12761;DHT22;6444;49.742;6.114;2023-02-15T08:21:21;4.00;99.90
12761;DHT22;6444;49.742;6.114;2023-02-15T08:23:47;3.90;99.90
12761;DHT22;6444;49.742;6.114;2023-02-15T08:26:13;3.00;99.90
12761;DHT22;6444;49.742;6.114;2023-02-15T08:28:40;2.10;99.90
12761;DHT22;6444;49.742;6.114;2023-02-15T08:31:07;2.30;99.90
12761;DHT22;6444;49.742;6.114;2023-02-15T08:33:34;3.60;99.90
12761;DHT22;6444;49.742;6.114;2023-02-15T08:36:08;3.50;99.90
12761;DHT22;6444;49.742;6.114;2023-02-15T08:38:34;3.20;99.90
12761;DHT22;6444;49.742;6.114;2023-02-15T08:41:10;2.60;99.90
12761;DHT22;6444;49.742;6.114;2023-02-15T08:43:36;1.90;99.90
12761;DHT22;6444;49.742;6.114;2023-02-15T08:46:02;1.70;99.90
12761;DHT22;6444;49.742;6.114;2023-02-15T08:48:29;1.90;99.90
12761;DHT22;6444;49.742;6.114;2023-02-15T08:50:56;2.30;99.90
12761;DHT22;6444;49.742;6.114;2023-02-15T08:53:23;2.60;99.90
12761;DHT22;6444;49.742;6.114;2023-02-15T08:55:56;2.50;99.90
12761;DHT22;6444;49.742;6.114;2023-02-15T08:58:22;1.80;99.90
12761;DHT22;6444;49.742;6.114;2023-02-15T09:00:49;1.60;99.90
12761;DHT22;6444;49.742;6.114;2023-02-15T09:03:16;2.20;99.90
12761;DHT22;6444;49.742;6.114;2023-02-15T09:05:42;2.40;99.90
12761;DHT22;6444;49.742;6.114;2023-02-15T09:08:09;3.20;99.90
12761;DHT22;6444;49.742;6.114;2023-02-15T09:10:35;3.40;99.90
12761;DHT22;6444;49.742;6.114;2023-02-15T09:13:02;2.50;99.90
12761;DHT22;6444;49.742;6.114;2023-02-15T09:15:29;1.40;99.90
12761;DHT22;6444;49.742;6.114;2023-02-15T09:17:56;1.40;99.90
12761;DHT22;6444;49.742;6.114;2023-02-15T09:20:23;1.50;99.90
12761;DHT22;6444;49.742;6.114;2023-02-15T09:22:51;1.30;99.90
12761;DHT22;6444;49.742;6.114;2023-02-15T09:25:16;1.40;99.90
12761;DHT22;6444;49.742;6.114;2023-02-15T09:27:43;1.40;99.90
12761;DHT22;6444;49.742;6.114;2023-02-15T09:30:10;1.30;99.90
12761;DHT22;6444;49.742;6.114;2023-02-15T09:32:37;1.60;99.90
12761;DHT22;6444;49.742;6.114;2023-02-15T09:35:03;2.10;99.90
12761;DHT22;6444;49.742;6.114;2023-02-15T09:37:30;2.20;99.90
12761;DHT22;6444;49.742;6.114;2023-02-15T09:39:57;2.20;99.90
12761;DHT22;6444;49.742;6.114;2023-02-15T09:56:10;3.10;99.90
12761;DHT22;6444;49.742;6.114;2023-02-15T10:01:33;2.30;99.90
12761;DHT22;6444;49.742;6.114;2023-02-15T10:09:37;2.60;99.90
12761;DHT22;6444;49.742;6.114;2023-02-15T10:28:18;4.10;99.90
12761;DHT22;6444;49.742;6.114;2023-02-15T10:30:47;4.10;99.90
12761;DHT22;6444;49.742;6.114;2023-02-15T10:33:27;5.00;99.90
12761;DHT22;6444;49.742;6.114;2023-02-15T10:43:49;7.70;99.90
12761;DHT22;6444;49.742;6.114;2023-02-15T10:46:17;7.70;99.90
12761;DHT22;6444;49.742;6.114;2023-02-15T10:48:52;7.50;99.90
12761;DHT22;6444;49.742;6.114;2023-02-15T10:51:26;7.30;99.90
12761;DHT22;6444;49.742;6.114;2023-02-15T10:54:35;7.00;99.90
12761;DHT22;6444;49.742;6.114;2023-02-15T11:01:56;6.90;99.90
12761;DHT22;6444;49.742;6.114;2023-02-15T11:04:40;6.80;99.90
12761;DHT22;6444;49.742;6.114;2023-02-15T11:09:43;6.40;99.90
12761;DHT22;6444;49.742;6.114;2023-02-15T11:12:12;6.90;99.90
12761;DHT22;6444;49.742;6.114;2023-02-15T11:14:55;6.90;99.90
12761;DHT22;6444;49.742;6.114;2023-02-15T11:17:18;7.00;99.90
12761;DHT22;6444;49.742;6.114;2023-02-15T11:19:50;7.00;99.90
12761;DHT22;6444;49.742;6.114;2023-02-15T11:22:12;6.80;99.90
12761;DHT22;6444;49.742;6.114;2023-02-15T11:24:41;6.80;99.90
12761;DHT22;6444;49.742;6.114;2023-02-15T11:27:29;6.40;99.90
12761;DHT22;6444;49.742;6.114;2023-02-15T11:29:59;6.20;99.90
12761;DHT22;6444;49.742;6.114;2023-02-15T11:32:27;6.40;99.90
12761;DHT22;6444;49.742;6.114;2023-02-15T11:35:06;6.40;99.90
12761;DHT22;6444;49.742;6.114;2023-02-15T11:40:14;6.90;99.90
12761;DHT22;6444;49.742;6.114;2023-02-15T11:42:32;6.90;99.90
12761;DHT22;6444;49.742;6.114;2023-02-15T11:45:02;6.70;99.90
12761;DHT22;6444;49.742;6.114;2023-02-15T11:47:25;7.10;99.90
12761;DHT22;6444;49.742;6.114;2023-02-15T11:49:52;7.20;99.90
12761;DHT22;6444;49.742;6.114;2023-02-15T11:52:19;7.20;99.90
12761;DHT22;6444;49.742;6.114;2023-02-15T11:54:47;7.10;99.90
12761;DHT22;6444;49.742;6.114;2023-02-15T12:02:30;7.20;99.90
12761;DHT22;6444;49.742;6.114;2023-02-15T12:04:58;7.50;99.90
12761;DHT22;6444;49.742;6.114;2023-02-15T12:07:36;7.50;99.90
12761;DHT22;6444;49.742;6.114;2023-02-15T12:10:04;7.70;99.90
12761;DHT22;6444;49.742;6.114;2023-02-15T12:12:30;7.60;99.90
12761;DHT22;6444;49.742;6.114;2023-02-15T12:14:56;7.80;99.90
12761;DHT22;6444;49.742;6.114;2023-02-15T12:17:31;7.70;99.90
12761;DHT22;6444;49.742;6.114;2023-02-15T12:20:00;8.10;99.90
12761;DHT22;6444;49.742;6.114;2023-02-15T12:22:25;7.90;99.90
12761;DHT22;6444;49.742;6.114;2023-02-15T12:24:52;8.10;99.90
12761;DHT22;6444;49.742;6.114;2023-02-15T12:27:24;8.30;99.90
12761;DHT22;6444;49.742;6.114;2023-02-15T12:29:55;8.40;99.90
12761;DHT22;6444;49.742;6.114;2023-02-15T12:32:27;8.30;99.90
12761;DHT22;6444;49.742;6.114;2023-02-15T12:34:55;8.90;99.90
12761;DHT22;6444;49.742;6.114;2023-02-15T12:37:23;9.10;99.90
12761;DHT22;6444;49.742;6.114;2023-02-15T12:39:56;9.00;99.90
12761;DHT22;6444;49.742;6.114;2023-02-15T12:42:22;8.70;99.90
12761;DHT22;6444;49.742;6.114;2023-02-15T12:44:58;8.40;99.90
12761;DHT22;6444;49.742;6.114;2023-02-15T12:47:24;8.30;99.90
12761;DHT22;6444;49.742;6.114;2023-02-15T12:50:13;8.80;99.90
12761;DHT22;6444;49.742;6.114;2023-02-15T12:52:38;8.80;99.90
12761;DHT22;6444;49.742;6.114;2023-02-15T12:55:18;8.70;99.90
12761;DHT22;6444;49.742;6.114;2023-02-15T12:57:37;8.80;99.90
12761;DHT22;6444;49.742;6.114;2023-02-15T13:02:53;8.60;99.90
12761;DHT22;6444;49.742;6.114;2023-02-15T13:08:11;9.00;99.90
12761;DHT22;6444;49.742;6.114;2023-02-15T13:10:39;8.80;99.90
12761;DHT22;6444;49.742;6.114;2023-02-15T13:13:09;8.80;99.90
12761;DHT22;6444;49.742;6.114;2023-02-15T13:15:37;8.90;99.90
12761;DHT22;6444;49.742;6.114;2023-02-15T13:18:04;9.00;99.90
12761;DHT22;6444;49.742;6.114;2023-02-15T13:20:29;9.20;99.90
12761;DHT22;6444;49.742;6.114;2023-02-15T13:23:03;9.00;99.90
12761;DHT22;6444;49.742;6.114;2023-02-15T13:25:29;9.00;99.90
12761;DHT22;6444;49.742;6.114;2023-02-15T13:27:57;9.10;99.90
12761;DHT22;6444;49.742;6.114;2023-02-15T13:30:25;9.30;99.90
12761;DHT22;6444;49.742;6.114;2023-02-15T13:32:49;9.40;99.90
12761;DHT22;6444;49.742;6.114;2023-02-15T13:35:16;9.50;99.90
12761;DHT22;6444;49.742;6.114;2023-02-15T13:37:55;9.50;99.90
12761;DHT22;6444;49.742;6.114;2023-02-15T13:43:16;9.40;99.90
12761;DHT22;6444;49.742;6.114;2023-02-15T13:45:55;9.20;99.90
12761;DHT22;6444;49.742;6.114;2023-02-15T13:48:33;9.50;99.90
12761;DHT22;6444;49.742;6.114;2023-02-15T13:56:45;9.80;99.90
12761;DHT22;6444;49.742;6.114;2023-02-15T14:01:55;10.10;99.90
12761;DHT22;6444;49.742;6.114;2023-02-15T14:07:45;10.10;99.90
12761;DHT22;6444;49.742;6.114;2023-02-15T14:15:58;9.70;99.90
12761;DHT22;6444;49.742;6.114;2023-02-15T14:32:12;10.20;99.90
12761;DHT22;6444;49.742;6.114;2023-02-15T14:34:52;10.20;99.90
12761;DHT22;6444;49.742;6.114;2023-02-15T14:37:19;10.30;99.90
12761;DHT22;6444;49.742;6.114;2023-02-15T14:39:46;10.30;99.90
12761;DHT22;6444;49.742;6.114;2023-02-15T14:42:37;10.20;99.90
12761;DHT22;6444;49.742;6.114;2023-02-15T14:45:27;10.20;99.90
12761;DHT22;6444;49.742;6.114;2023-02-15T14:48:12;10.30;99.90
12761;DHT22;6444;49.742;6.114;2023-02-15T14:56:21;10.40;99.90
12761;DHT22;6444;49.742;6.114;2023-02-15T15:01:30;10.20;99.90
12761;DHT22;6444;49.742;6.114;2023-02-15T15:03:57;10.20;99.90
12761;DHT22;6444;49.742;6.114;2023-02-15T15:06:26;10.30;99.90
12761;DHT22;6444;49.742;6.114;2023-02-15T15:08:52;10.30;99.90
12761;DHT22;6444;49.742;6.114;2023-02-15T15:13:58;10.10;99.90
12761;DHT22;6444;49.742;6.114;2023-02-15T15:16:25;10.00;99.90
12761;DHT22;6444;49.742;6.114;2023-02-15T15:18:50;10.00;99.90
12761;DHT22;6444;49.742;6.114;2023-02-15T15:35:36;10.10;99.90
12761;DHT22;6444;49.742;6.114;2023-02-15T15:43:30;10.00;99.90
12761;DHT22;6444;49.742;6.114;2023-02-15T15:46:04;10.00;99.90
12761;DHT22;6444;49.742;6.114;2023-02-15T15:48:35;10.00;99.90
12761;DHT22;6444;49.742;6.114;2023-02-15T15:51:02;10.10;99.90
12761;DHT22;6444;49.742;6.114;2023-02-15T15:53:27;10.70;99.90
12761;DHT22;6444;49.742;6.114;2023-02-15T15:55:58;11.20;99.90
12761;DHT22;6444;49.742;6.114;2023-02-15T15:58:23;11.10;99.90
12761;DHT22;6444;49.742;6.114;2023-02-15T16:00:50;10.40;99.90
12761;DHT22;6444;49.742;6.114;2023-02-15T16:03:24;10.00;99.90
12761;DHT22;6444;49.742;6.114;2023-02-15T16:05:50;10.00;99.90
12761;DHT22;6444;49.742;6.114;2023-02-15T16:08:16;9.70;99.90
12761;DHT22;6444;49.742;6.114;2023-02-15T16:10:43;9.90;99.90
12761;DHT22;6444;49.742;6.114;2023-02-15T16:13:11;10.20;99.90
12761;DHT22;6444;49.742;6.114;2023-02-15T16:18:03;10.30;99.90
12761;DHT22;6444;49.742;6.114;2023-02-15T16:20:36;10.20;99.90
12761;DHT22;6444;49.742;6.114;2023-02-15T16:26:10;10.10;99.90
12761;DHT22;6444;49.742;6.114;2023-02-15T16:28:35;10.10;99.90
12761;DHT22;6444;49.742;6.114;2023-02-15T16:31:11;9.70;99.90
12761;DHT22;6444;49.742;6.114;2023-02-15T16:33:37;9.70;99.90
12761;DHT22;6444;49.742;6.114;2023-02-15T16:36:03;9.70;99.90
12761;DHT22;6444;49.742;6.114;2023-02-15T16:41:22;10.10;99.90
12761;DHT22;6444;49.742;6.114;2023-02-15T16:43:48;10.30;99.90
12761;DHT22;6444;49.742;6.114;2023-02-15T16:46:18;10.00;99.90
12761;DHT22;6444;49.742;6.114;2023-02-15T16:48:43;9.90;99.90
12761;DHT22;6444;49.742;6.114;2023-02-15T16:51:08;9.90;99.90
12761;DHT22;6444;49.742;6.114;2023-02-15T16:53:35;10.20;99.90
12761;DHT22;6444;49.742;6.114;2023-02-15T16:56:02;10.20;99.90
12761;DHT22;6444;49.742;6.114;2023-02-15T16:58:36;10.20;99.90
12761;DHT22;6444;49.742;6.114;2023-02-15T17:00:58;10.10;99.90
12761;DHT22;6444;49.742;6.114;2023-02-15T17:03:24;10.00;99.90
12761;DHT22;6444;49.742;6.114;2023-02-15T17:05:52;9.90;99.90
12761;DHT22;6444;49.742;6.114;2023-02-15T17:08:31;9.80;99.90
12761;DHT22;6444;49.742;6.114;2023-02-15T17:13:26;9.20;99.90
12761;DHT22;6444;49.742;6.114;2023-02-15T17:18:50;9.00;99.90
12761;DHT22;6444;49.742;6.114;2023-02-15T17:20:56;8.90;99.90
12761;DHT22;6444;49.742;6.114;2023-02-15T17:23:31;8.60;99.90
12761;DHT22;6444;49.742;6.114;2023-02-15T17:25:57;8.20;99.90
12761;DHT22;6444;49.742;6.114;2023-02-15T17:28:29;8.60;99.90
12761;DHT22;6444;49.742;6.114;2023-02-15T17:30:55;8.80;99.90
12761;DHT22;6444;49.742;6.114;2023-02-15T17:36:19;8.60;99.90
12761;DHT22;6444;49.742;6.114;2023-02-15T17:41:31;7.70;99.90
12761;DHT22;6444;49.742;6.114;2023-02-15T17:43:57;7.60;99.90
12761;DHT22;6444;49.742;6.114;2023-02-15T17:46:24;7.50;99.90
12761;DHT22;6444;49.742;6.114;2023-02-15T17:48:50;7.40;99.90
12761;DHT22;6444;49.742;6.114;2023-02-15T17:51:17;7.90;99.90
12761;DHT22;6444;49.742;6.114;2023-02-15T17:53:43;8.10;99.90
12761;DHT22;6444;49.742;6.114;2023-02-15T17:56:10;8.00;99.90
12761;DHT22;6444;49.742;6.114;2023-02-15T17:58:36;8.10;99.90
12761;DHT22;6444;49.742;6.114;2023-02-15T18:01:04;8.10;99.90
12761;DHT22;6444;49.742;6.114;2023-02-15T18:03:48;8.10;99.90
12761;DHT22;6444;49.742;6.114;2023-02-15T18:06:37;7.40;99.90
12761;DHT22;6444;49.742;6.114;2023-02-15T18:09:18;7.40;99.90
12761;DHT22;6444;49.742;6.114;2023-02-15T18:12:02;7.20;99.90
12761;DHT22;6444;49.742;6.114;2023-02-15T18:14:28;7.30;99.90
12761;DHT22;6444;49.742;6.114;2023-02-15T18:16:55;7.40;99.90
12761;DHT22;6444;49.742;6.114;2023-02-15T18:19:23;7.60;99.90
12761;DHT22;6444;49.742;6.114;2023-02-15T18:21:49;7.40;99.90
12761;DHT22;6444;49.742;6.114;2023-02-15T18:24:17;7.40;99.90
12761;DHT22;6444;49.742;6.114;2023-02-15T18:26:43;7.60;99.90
12761;DHT22;6444;49.742;6.114;2023-02-15T18:29:10;7.60;99.90
12761;DHT22;6444;49.742;6.114;2023-02-15T18:31:36;7.70;99.90
12761;DHT22;6444;49.742;6.114;2023-02-15T18:34:03;7.70;99.90
12761;DHT22;6444;49.742;6.114;2023-02-15T18:36:36;7.60;99.90
12761;DHT22;6444;49.742;6.114;2023-02-15T18:38:57;7.40;99.90
12761;DHT22;6444;49.742;6.114;2023-02-15T18:41:24;7.30;99.90
12761;DHT22;6444;49.742;6.114;2023-02-15T18:43:53;7.30;99.90
12761;DHT22;6444;49.742;6.114;2023-02-15T18:46:20;6.60;99.90
12761;DHT22;6444;49.742;6.114;2023-02-15T18:48:47;6.20;99.90
12761;DHT22;6444;49.742;6.114;2023-02-15T18:51:20;5.40;99.90
12761;DHT22;6444;49.742;6.114;2023-02-15T18:53:49;5.10;99.90
12761;DHT22;6444;49.742;6.114;2023-02-15T18:56:16;5.70;99.90
12761;DHT22;6444;49.742;6.114;2023-02-15T18:58:42;5.90;99.90
12761;DHT22;6444;49.742;6.114;2023-02-15T19:01:19;5.60;99.90
12761;DHT22;6444;49.742;6.114;2023-02-15T19:03:35;5.60;99.90